createdAt,value
2019-05-11T00:01:33.926Z,73.29
2019-05-11T00:04:03.221Z,73.17
2019-05-11T00:06:32.746Z,72.71
2019-05-11T00:09:02.073Z,72.07
2019-05-11T00:11:31.485Z,73.27
2019-05-11T00:14:01.094Z,74.06
2019-05-11T00:16:30.343Z,74.29
2019-05-11T00:18:59.632Z,74.41
2019-05-11T00:21:28.905Z,74.31
2019-05-11T00:23:58.439Z,74.26
2019-05-11T00:26:27.755Z,73.82
2019-05-11T00:28:57.036Z,73.63
2019-05-11T00:31:26.357Z,73.27
2019-05-11T00:33:55.677Z,73.22
2019-05-11T00:36:25.324Z,73.15
2019-05-11T00:38:54.647Z,73.36
2019-05-11T00:41:23.927Z,73.83
2019-05-11T00:43:53.211Z,73.75
2019-05-11T00:46:22.510Z,73.85
2019-05-11T00:48:51.808Z,73.02
2019-05-11T00:51:21.091Z,74.68
2019-05-11T00:53:50.388Z,75.18
2019-05-11T00:56:19.681Z,75.12
2019-05-11T00:58:50.897Z,74.18
2019-05-11T01:01:19.958Z,74.14
2019-05-11T01:03:49.213Z,73.97
2019-05-11T01:06:18.522Z,74.20
2019-05-11T01:08:47.788Z,73.75
2019-05-11T01:11:17.101Z,73.84
2019-05-11T01:13:46.367Z,73.90
2019-05-11T01:16:15.653Z,73.68
2019-05-11T01:18:44.956Z,73.88
2019-05-11T01:21:14.257Z,74.38
2019-05-11T01:23:43.503Z,74.90
2019-05-11T01:26:13.081Z,75.52
2019-05-11T01:28:42.343Z,75.87
2019-05-11T01:31:11.619Z,76.26
2019-05-11T01:33:40.921Z,76.62
2019-05-11T01:36:10.519Z,77.20
2019-05-11T01:38:39.761Z,77.96
2019-05-11T01:41:09.039Z,78.10
2019-05-11T01:43:38.304Z,77.92
2019-05-11T01:46:07.591Z,78.09
2019-05-11T01:48:38.500Z,78.19
2019-05-11T01:51:07.753Z,78.12
2019-05-11T01:53:37.038Z,77.96
2019-05-11T01:56:06.315Z,77.90
2019-05-11T01:58:35.520Z,77.64
2019-05-11T02:01:04.826Z,77.87
2019-05-11T02:03:34.066Z,77.67
2019-05-11T02:06:03.357Z,77.76
2019-05-11T02:08:32.634Z,78.08
2019-05-11T02:11:15.535Z,78.06
2019-05-11T02:13:33.387Z,78.03
2019-05-11T02:16:02.642Z,77.88
2019-05-11T02:18:32.699Z,78.10
2019-05-11T02:21:01.949Z,78.01
2019-05-11T02:23:31.177Z,78.10
2019-05-11T02:26:00.417Z,78.08
2019-05-11T02:28:29.661Z,78.24
2019-05-11T02:30:58.923Z,78.51
2019-05-11T02:33:28.165Z,79.44
2019-05-11T02:35:57.608Z,79.96
2019-05-11T02:38:26.850Z,80.16
2019-05-11T02:40:55.906Z,80.35
2019-05-11T02:43:25.189Z,80.21
2019-05-11T02:45:54.427Z,80.17
2019-05-11T02:48:23.685Z,80.21
2019-05-11T02:50:54.466Z,80.26
2019-05-11T02:53:24.425Z,80.28
2019-05-11T02:55:54.950Z,80.54
2019-05-11T02:58:24.213Z,80.99
2019-05-11T03:00:53.445Z,81.18
2019-05-11T03:03:22.700Z,81.51
2019-05-11T03:05:51.934Z,81.96
2019-05-11T03:08:21.340Z,81.97
2019-05-11T03:10:50.600Z,82.21
2019-05-11T03:13:19.871Z,82.61
2019-05-11T03:15:49.140Z,82.59
2019-05-11T03:18:18.563Z,81.90
2019-05-11T03:20:47.795Z,81.76
2019-05-11T03:23:17.081Z,81.70
2019-05-11T03:25:46.333Z,81.59
2019-05-11T03:28:15.596Z,81.62
2019-05-11T03:30:44.881Z,81.92
2019-05-11T03:33:14.179Z,81.71
2019-05-11T03:35:43.441Z,81.26
2019-05-11T03:38:12.757Z,81.34
2019-05-11T03:40:42.009Z,81.57
2019-05-11T03:43:11.260Z,81.63
2019-05-11T03:45:40.498Z,81.52
2019-05-11T03:48:10.230Z,80.98
2019-05-11T03:50:39.523Z,80.89
2019-05-11T03:53:08.812Z,80.79
2019-05-11T03:55:38.060Z,80.84
2019-05-11T03:58:07.358Z,80.95
2019-05-11T04:00:36.612Z,80.98
2019-05-11T04:03:07.211Z,80.94
2019-05-11T04:05:36.480Z,80.63
2019-05-11T04:08:05.695Z,80.76
2019-05-11T04:10:34.939Z,81.10
2019-05-11T04:13:04.233Z,81.70
2019-05-11T04:15:33.460Z,81.90
2019-05-11T04:18:02.725Z,82.43
2019-05-11T04:20:31.948Z,82.55
2019-05-11T04:23:01.226Z,82.33
2019-05-11T04:25:30.781Z,81.83
2019-05-11T04:28:00.625Z,80.79
2019-05-11T04:30:29.886Z,80.16
2019-05-11T04:32:59.110Z,80.79
2019-05-11T04:35:28.427Z,80.43
2019-05-11T04:37:57.919Z,80.19
2019-05-11T04:40:27.138Z,80.25
2019-05-11T04:42:56.584Z,79.53
2019-05-11T04:45:26.000Z,79.54
2019-05-11T04:47:55.577Z,79.38
2019-05-11T04:50:25.163Z,79.52
2019-05-11T04:52:54.383Z,79.76
2019-05-11T04:55:23.660Z,79.44
2019-05-11T04:57:52.938Z,79.32
2019-05-11T05:00:23.500Z,78.80
2019-05-11T05:02:52.718Z,78.48
2019-05-11T05:05:21.963Z,78.72
2019-05-11T05:07:51.195Z,78.17
2019-05-11T05:10:22.311Z,77.78
2019-05-11T05:12:53.429Z,77.29
2019-05-11T05:15:22.679Z,77.10
2019-05-11T05:17:51.934Z,77.62
2019-05-11T05:20:21.178Z,76.71
2019-05-11T05:22:50.406Z,77.11
2019-05-11T05:25:19.658Z,76.97
2019-05-11T05:27:48.884Z,77.15
2019-05-11T05:30:18.434Z,76.94
2019-05-11T05:32:48.058Z,76.64
2019-05-11T05:35:17.303Z,76.88
2019-05-11T05:37:46.594Z,76.57
2019-05-11T05:40:16.309Z,77.49
2019-05-11T05:42:45.693Z,77.94
2019-05-11T05:45:18.222Z,79.20
2019-05-11T05:47:47.487Z,80.51
2019-05-11T05:50:17.203Z,81.76
2019-05-11T05:52:46.472Z,83.74
2019-05-11T05:55:15.729Z,83.43
2019-05-11T05:57:45.233Z,84.01
2019-05-11T06:00:14.929Z,83.96
2019-05-11T06:02:44.158Z,84.48
2019-05-11T06:05:13.437Z,83.68
2019-05-11T06:07:42.723Z,84.49
2019-05-11T06:10:12.735Z,87.32
2019-05-11T06:12:42.015Z,89.87
2019-05-11T06:15:11.566Z,93.08
2019-05-11T06:17:40.792Z,95.46
2019-05-11T06:20:10.244Z,97.09
2019-05-11T06:22:39.616Z,97.90
2019-05-11T06:25:08.970Z,98.57
2019-05-11T06:27:38.192Z,99.17
2019-05-11T06:30:08.401Z,99.38
2019-05-11T06:32:37.638Z,99.56
2019-05-11T06:35:07.040Z,99.87
2019-05-11T06:37:36.303Z,100.00
2019-05-11T06:40:06.099Z,100.00
2019-05-11T06:42:36.879Z,100.00
2019-05-11T06:45:06.727Z,100.00
2019-05-11T06:47:35.955Z,100.00
2019-05-11T06:50:05.368Z,100.00
2019-05-11T06:52:34.629Z,100.00
2019-05-11T06:55:04.082Z,100.00
2019-05-11T06:57:33.332Z,100.00
2019-05-11T07:00:02.571Z,100.00
2019-05-11T07:02:32.167Z,100.00
2019-05-11T07:05:01.645Z,100.00
2019-05-11T07:07:45.293Z,100.00
2019-05-11T07:10:01.918Z,100.00
2019-05-11T07:12:31.210Z,100.00
2019-05-11T07:15:00.489Z,100.00
2019-05-11T07:17:29.969Z,100.00
2019-05-11T07:19:59.217Z,100.00
2019-05-11T07:22:28.490Z,100.00
2019-05-11T07:24:57.749Z,100.00
2019-05-11T07:27:26.991Z,100.00
2019-05-11T07:29:56.271Z,100.00
2019-05-11T07:32:26.246Z,100.00
2019-05-11T07:34:57.619Z,99.65
2019-05-11T07:37:28.009Z,98.54
2019-05-11T07:39:58.051Z,96.91
2019-05-11T07:42:28.556Z,95.97
2019-05-11T07:44:58.378Z,96.16
2019-05-11T07:47:28.017Z,94.90
2019-05-11T07:49:58.040Z,94.12
2019-05-11T07:52:28.754Z,92.03
2019-05-11T07:54:58.161Z,89.05
2019-05-11T07:57:28.455Z,83.89
2019-05-11T07:59:58.049Z,85.01
2019-05-11T08:02:28.564Z,85.05
2019-05-11T08:04:58.779Z,89.25
2019-05-11T08:07:28.641Z,89.91
2019-05-11T08:09:58.829Z,91.98
2019-05-11T08:12:28.665Z,91.39
2019-05-11T08:15:08.200Z,86.80
2019-05-11T08:17:29.112Z,87.97
2019-05-11T08:19:58.408Z,85.98
2019-05-11T08:22:28.453Z,87.72
2019-05-11T08:24:58.594Z,86.87
2019-05-11T08:27:29.179Z,87.62
2019-05-11T08:29:58.410Z,87.55
2019-05-11T08:32:28.628Z,87.99
2019-05-11T08:34:58.558Z,86.93
2019-05-11T08:37:28.515Z,87.66
2019-05-11T08:39:58.564Z,87.31
2019-05-11T08:42:28.931Z,88.50
2019-05-11T08:45:15.322Z,87.22
2019-05-11T08:47:29.297Z,85.60
2019-05-11T08:49:59.099Z,86.17
2019-05-11T08:52:28.459Z,86.94
2019-05-11T08:54:57.945Z,87.91
2019-05-11T08:57:28.542Z,88.36
2019-05-11T08:59:58.082Z,88.58
2019-05-11T09:02:27.909Z,88.78
2019-05-11T09:04:58.969Z,90.12
2019-05-11T09:07:28.192Z,89.31
2019-05-11T09:09:58.628Z,88.54
2019-05-11T09:12:28.843Z,88.08
2019-05-11T09:14:58.288Z,86.63
2019-05-11T09:17:28.842Z,85.48
2019-05-11T09:19:58.299Z,84.72
2019-05-11T09:22:28.367Z,84.46
2019-05-11T09:24:58.408Z,81.96
2019-05-11T09:27:28.663Z,82.54
2019-05-11T09:29:58.753Z,81.04
2019-05-11T09:32:28.682Z,79.20
2019-05-11T09:34:58.155Z,76.35
2019-05-11T09:37:27.840Z,75.84
2019-05-11T09:39:58.355Z,73.61
2019-05-11T09:42:28.558Z,73.89
2019-05-11T09:44:58.142Z,75.58
2019-05-11T09:47:28.031Z,74.50
2019-05-11T09:49:58.237Z,75.43
2019-05-11T09:52:32.445Z,76.07
2019-05-11T09:55:02.131Z,75.23
2019-05-11T09:57:31.368Z,74.67
2019-05-11T10:00:00.620Z,74.31
2019-05-11T10:02:29.869Z,77.05
2019-05-11T10:04:59.116Z,76.72
2019-05-11T10:07:28.896Z,75.74
2019-05-11T10:09:59.342Z,72.33
2019-05-11T10:12:28.724Z,68.76
2019-05-11T10:14:59.096Z,62.51
2019-05-11T10:17:28.887Z,56.98
2019-05-11T10:19:58.485Z,55.54
2019-05-11T10:22:27.935Z,49.38
2019-05-11T10:24:58.240Z,46.95
2019-05-11T10:27:28.107Z,46.07
2019-05-11T10:29:58.927Z,46.04
2019-05-11T10:32:28.884Z,48.79
2019-05-11T10:34:58.464Z,50.19
2019-05-11T10:37:28.347Z,51.69
2019-05-11T10:39:57.852Z,54.48
2019-05-11T10:42:28.390Z,56.33
2019-05-11T10:44:58.335Z,56.08
2019-05-11T10:47:27.989Z,57.56
2019-05-11T10:49:58.006Z,56.97
2019-05-11T10:52:28.579Z,58.65
2019-05-11T10:54:58.730Z,60.80
2019-05-11T10:57:28.414Z,62.19
2019-05-11T10:59:58.120Z,61.90
2019-05-11T11:02:27.986Z,62.34
2019-05-11T11:04:58.904Z,63.14
2019-05-11T11:07:28.972Z,64.43
2019-05-11T11:09:58.483Z,64.57
2019-05-11T11:12:27.980Z,66.08
2019-05-11T11:14:59.752Z,66.71
2019-05-11T11:17:28.993Z,67.75
2019-05-11T11:19:58.269Z,66.51
2019-05-11T11:22:39.030Z,66.74
2019-05-11T11:24:58.977Z,66.14
2019-05-11T11:27:29.198Z,65.81
2019-05-11T11:29:58.621Z,66.86
2019-05-11T11:32:28.098Z,66.71
2019-05-11T11:34:57.918Z,66.60
2019-05-11T11:37:28.096Z,66.83
2019-05-11T11:39:58.100Z,66.94
2019-05-11T11:42:28.369Z,68.19
2019-05-11T11:44:58.753Z,69.13
2019-05-11T11:47:28.275Z,68.36
2019-05-11T11:49:58.408Z,69.33
2019-05-11T11:52:27.838Z,68.77
2019-05-11T11:54:58.644Z,68.83
2019-05-11T11:57:28.473Z,67.10
2019-05-11T11:59:58.698Z,66.79
2019-05-11T12:02:28.094Z,66.76
2019-05-11T12:04:58.178Z,65.77
2019-05-11T12:07:28.489Z,63.30
2019-05-11T12:09:58.740Z,62.34
2019-05-11T12:12:28.380Z,61.60
2019-05-11T12:14:58.471Z,61.70
2019-05-11T12:17:28.638Z,60.10
2019-05-11T12:19:58.694Z,60.83
2019-05-11T12:22:28.142Z,60.91
2019-05-11T12:24:58.895Z,60.82
2019-05-11T12:27:28.799Z,61.37
2019-05-11T12:29:58.357Z,61.17
2019-05-11T12:32:34.889Z,60.47
2019-05-11T12:35:04.353Z,61.44
2019-05-11T12:37:33.577Z,61.29
2019-05-11T12:40:02.831Z,60.37
2019-05-11T12:42:32.111Z,59.54
2019-05-11T12:45:01.319Z,58.39
2019-05-11T12:47:30.583Z,58.39
2019-05-11T12:49:59.832Z,56.03
2019-05-11T12:52:29.073Z,55.32
2019-05-11T12:54:58.443Z,56.71
2019-05-11T12:57:28.232Z,56.47
2019-05-11T12:59:58.294Z,57.96
2019-05-11T13:02:28.097Z,59.15
2019-05-11T13:04:58.452Z,59.79
2019-05-11T13:07:28.465Z,59.82
2019-05-11T13:09:58.152Z,59.91
2019-05-11T13:12:27.935Z,59.91
2019-05-11T13:14:58.121Z,59.58
2019-05-11T13:17:37.365Z,60.28
2019-05-11T13:19:58.947Z,60.28
2019-05-11T13:22:28.980Z,59.32
2019-05-11T13:24:58.927Z,59.29
2019-05-11T13:27:28.455Z,59.29
2019-05-11T13:29:59.210Z,60.74
2019-05-11T13:32:28.565Z,60.09
2019-05-11T13:34:58.398Z,59.92
2019-05-11T13:37:28.373Z,59.45
2019-05-11T13:39:58.023Z,59.99
2019-05-11T13:42:27.795Z,58.96
2019-05-11T13:44:58.422Z,58.35
2019-05-11T13:47:28.404Z,58.35
2019-05-11T13:49:58.420Z,60.74
2019-05-11T13:52:28.694Z,61.10
2019-05-11T13:54:58.537Z,60.78
2019-05-11T13:57:28.635Z,62.50
2019-05-11T13:59:58.215Z,62.60
2019-05-11T14:02:28.566Z,62.75
2019-05-11T14:04:58.517Z,63.17
2019-05-11T14:07:28.074Z,64.30
2019-05-11T14:09:58.860Z,64.21
2019-05-11T14:12:28.684Z,66.60
2019-05-11T14:14:59.123Z,59.42
2019-05-11T14:17:31.672Z,58.08
2019-05-11T14:19:59.828Z,56.65
2019-05-11T14:22:29.114Z,56.84
2019-05-11T14:24:58.710Z,56.60
2019-05-11T14:27:28.357Z,52.86
2019-05-11T14:29:58.227Z,52.89
2019-05-11T14:32:28.476Z,54.09
2019-05-11T14:34:58.160Z,54.23
2019-05-11T14:37:28.530Z,55.36
2019-05-11T14:39:58.462Z,53.73
2019-05-11T14:42:28.697Z,53.73
2019-05-11T14:44:58.929Z,54.03
2019-05-11T14:47:28.491Z,54.69
2019-05-11T14:49:57.989Z,53.67
2019-05-11T14:52:28.096Z,54.28
2019-05-11T14:54:58.425Z,55.82
2019-05-11T14:57:28.202Z,56.22
2019-05-11T14:59:58.609Z,56.89
2019-05-11T15:02:48.581Z,58.37
2019-05-11T15:05:19.619Z,59.78
2019-05-11T15:07:51.894Z,60.14
2019-05-11T15:10:20.010Z,58.80
2019-05-11T15:12:49.449Z,58.46
2019-05-11T15:15:19.255Z,61.70
2019-05-11T15:17:49.406Z,62.68
2019-05-11T15:20:19.214Z,62.58
2019-05-11T15:22:49.358Z,66.50
2019-05-11T15:25:20.143Z,67.62
2019-05-11T15:27:49.674Z,73.20
2019-05-11T15:30:19.443Z,77.47
2019-05-11T15:32:49.000Z,80.78
2019-05-11T15:35:18.964Z,82.39
2019-05-11T15:37:48.460Z,84.54
2019-05-11T15:40:19.495Z,83.02
2019-05-11T15:42:52.017Z,79.63
2019-05-11T15:45:21.677Z,76.03
2019-05-11T15:47:51.210Z,77.57
2019-05-11T15:50:21.206Z,78.35
2019-05-11T15:52:50.477Z,79.42
2019-05-11T15:55:20.620Z,85.23
2019-05-11T15:57:49.836Z,84.04
2019-05-11T16:00:19.817Z,86.41
2019-05-11T16:02:49.330Z,88.81
2019-05-11T16:05:18.856Z,83.80
2019-05-11T16:07:49.266Z,88.41
2019-05-11T16:10:19.163Z,85.20
2019-05-11T16:12:48.979Z,88.11
2019-05-11T16:15:19.548Z,94.21
2019-05-11T16:17:49.233Z,96.29
2019-05-11T16:20:19.713Z,98.05
2019-05-11T16:22:48.962Z,97.65
2019-05-11T16:25:19.620Z,98.95
2019-05-11T16:27:49.293Z,100.00
2019-05-11T16:30:21.512Z,100.00
2019-05-11T16:32:49.663Z,100.00
2019-05-11T16:35:19.246Z,100.00
2019-05-11T16:37:48.873Z,99.68
2019-05-11T16:40:20.856Z,99.03
2019-05-11T16:42:49.945Z,96.52
2019-05-11T16:45:23.115Z,92.95
2019-05-11T16:47:50.655Z,93.81
2019-05-11T16:50:19.888Z,93.72
2019-05-11T16:52:49.249Z,95.55
2019-05-11T16:55:18.738Z,95.28
2019-05-11T16:57:48.767Z,97.02
2019-05-11T17:00:18.780Z,96.47
2019-05-11T17:02:49.063Z,97.92
2019-05-11T17:05:26.328Z,99.12
2019-05-11T17:07:49.594Z,100.00
2019-05-11T17:10:19.055Z,100.00
2019-05-11T17:12:48.947Z,100.00
2019-05-11T17:15:19.124Z,100.00
2019-05-11T17:17:49.044Z,100.00
2019-05-11T17:20:19.294Z,100.00
2019-05-11T17:22:48.698Z,100.00
2019-05-11T17:25:19.119Z,100.00
2019-05-11T19:29:00.801Z,100.00
2019-05-11T19:31:30.337Z,100.00
2019-05-11T19:33:59.586Z,100.00
2019-05-11T19:36:28.932Z,100.00
2019-05-11T19:38:58.448Z,100.00
2019-05-11T19:41:27.998Z,100.00
2019-05-11T19:43:57.694Z,100.00
2019-05-11T19:46:28.058Z,100.00
2019-05-11T19:48:58.114Z,100.00
2019-05-11T19:51:29.084Z,100.00
2019-05-11T19:53:58.485Z,100.00
2019-05-11T19:56:28.951Z,100.00
2019-05-11T19:58:58.511Z,100.00
2019-05-11T20:01:28.012Z,100.00
2019-05-11T20:03:57.261Z,100.00
2019-05-11T20:06:28.089Z,100.00
2019-05-11T20:08:58.213Z,100.00
2019-05-11T20:11:28.033Z,100.00
2019-05-11T20:13:58.980Z,100.00
2019-05-11T20:16:28.446Z,100.00
2019-05-11T20:18:57.849Z,100.00
2019-05-11T20:21:29.107Z,100.00
2019-05-11T20:23:58.052Z,100.00
2019-05-11T20:26:28.593Z,100.00
2019-05-11T20:28:58.766Z,100.00
2019-05-11T20:31:28.167Z,100.00
2019-05-11T20:33:57.401Z,100.00
2019-05-11T20:36:26.661Z,100.00
2019-05-11T20:38:56.523Z,100.00
2019-05-11T20:41:27.867Z,100.00
2019-05-11T20:43:58.064Z,100.00
2019-05-11T20:46:27.793Z,100.00
2019-05-11T20:48:57.967Z,100.00
2019-05-11T20:51:34.168Z,100.00
2019-05-11T20:53:58.286Z,100.00
2019-05-11T20:56:28.415Z,100.00
2019-05-11T20:58:59.534Z,100.00
2019-05-11T21:01:29.089Z,100.00
2019-05-11T21:03:58.841Z,100.00
2019-05-11T21:06:29.366Z,100.00
2019-05-11T21:08:59.076Z,100.00
2019-05-11T21:11:28.312Z,100.00
2019-05-11T21:13:57.667Z,100.00
2019-05-11T21:16:26.926Z,100.00
2019-05-11T21:18:58.014Z,100.00
2019-05-11T21:21:27.897Z,100.00
2019-05-11T21:23:58.102Z,100.00
2019-05-11T21:26:28.218Z,100.00
2019-05-11T21:28:58.038Z,100.00
2019-05-11T21:31:29.095Z,100.00
2019-05-11T21:33:58.494Z,100.00
2019-05-11T21:36:28.380Z,100.00
2019-05-11T21:38:58.715Z,100.00
2019-05-11T21:41:31.001Z,100.00
2019-05-11T21:43:59.269Z,100.00
2019-05-11T21:46:28.573Z,100.00
2019-05-11T21:48:58.345Z,100.00
2019-05-11T21:51:28.596Z,100.00
2019-05-11T21:53:57.989Z,100.00
2019-05-11T21:56:28.856Z,100.00
2019-05-11T21:58:58.241Z,100.00
2019-05-11T22:01:28.078Z,100.00
2019-05-11T22:03:59.521Z,100.00
2019-05-11T22:06:30.526Z,100.00
2019-05-11T22:08:59.735Z,100.00
2019-05-11T22:11:28.986Z,100.00
2019-05-11T22:13:58.238Z,100.00
2019-05-11T22:16:29.856Z,100.00
2019-05-11T22:18:58.443Z,100.00
2019-05-11T22:21:28.507Z,100.00
2019-05-11T22:23:58.543Z,100.00
2019-05-11T22:26:28.635Z,100.00
2019-05-11T22:28:58.101Z,100.00
2019-05-11T22:31:28.010Z,100.00
2019-05-11T22:33:58.340Z,100.00
2019-05-11T22:36:28.342Z,100.00
2019-05-11T22:38:58.735Z,100.00
2019-05-11T22:41:28.210Z,100.00
2019-05-11T22:43:57.471Z,100.00
2019-05-11T22:46:28.098Z,100.00
2019-05-11T22:48:58.366Z,100.00
2019-05-11T22:51:35.112Z,100.00
2019-05-11T22:54:04.360Z,100.00
2019-05-11T22:56:33.576Z,100.00
2019-05-11T22:59:02.840Z,100.00
2019-05-11T23:01:32.902Z,100.00
2019-05-11T23:04:02.150Z,100.00
2019-05-11T23:06:31.368Z,100.00
2019-05-11T23:09:00.635Z,100.00
2019-05-11T23:11:29.887Z,100.00
2019-05-11T23:13:59.156Z,100.00
2019-05-11T23:16:28.765Z,100.00
2019-05-11T23:18:58.208Z,100.00
2019-05-11T23:21:30.021Z,100.00
2019-05-11T23:23:58.444Z,100.00
2019-05-11T23:26:28.190Z,100.00
2019-05-11T23:28:58.097Z,100.00
2019-05-11T23:31:27.997Z,100.00
2019-05-11T23:33:57.999Z,100.00
2019-05-11T23:36:27.970Z,100.00
2019-05-11T23:38:58.589Z,100.00
2019-05-11T23:41:28.814Z,100.00
2019-05-11T23:43:58.525Z,100.00
2019-05-11T23:46:28.629Z,100.00
2019-05-11T23:48:58.231Z,100.00
2019-05-11T23:51:28.335Z,100.00
2019-05-11T23:53:58.802Z,100.00
2019-05-11T23:56:28.372Z,100.00
2019-05-11T23:58:57.959Z,100.00
